sensor_id;sensor_type;location;lat;lon;timestamp;pressure;altitude;pressure_sealevel;temperature;humidity
65280;BME280;51878;55.748;48.742;2023-04-19T00:03:59;100005.81;;;9.59;51.60
65280;BME280;51878;55.748;48.742;2023-04-19T00:09:01;100004.94;;;9.59;51.55
65280;BME280;51878;55.748;48.742;2023-04-19T00:14:03;100011.72;;;9.63;51.22
65280;BME280;51878;55.748;48.742;2023-04-19T00:19:08;100028.81;;;9.71;51.35
65280;BME280;51878;55.748;48.742;2023-04-19T00:24:10;99927.75;;;9.14;51.54
65280;BME280;51878;55.748;48.742;2023-04-19T00:29:12;99879.13;;;8.79;51.34
65280;BME280;51878;55.748;48.742;2023-04-19T00:34:14;99972.94;;;9.38;51.32
65280;BME280;51878;55.748;48.742;2023-04-19T00:39:17;99937.38;;;9.16;51.42
65280;BME280;51878;55.748;48.742;2023-04-19T00:44:19;99946.53;;;9.31;50.96
65280;BME280;51878;55.748;48.742;2023-04-19T00:49:22;99936.75;;;9.30;50.83
65280;BME280;51878;55.748;48.742;2023-04-19T00:54:24;99996.31;;;9.63;51.05
65280;BME280;51878;55.748;48.742;2023-04-19T00:59:27;100019.00;;;9.79;50.60
65280;BME280;51878;55.748;48.742;2023-04-19T01:04:30;100003.44;;;9.64;50.43
65280;BME280;51878;55.748;48.742;2023-04-19T01:09:32;99911.16;;;9.17;50.56
65280;BME280;51878;55.748;48.742;2023-04-19T01:14:34;99972.66;;;9.57;49.72
65280;BME280;51878;55.748;48.742;2023-04-19T01:19:36;100003.28;;;9.74;50.20
65280;BME280;51878;55.748;48.742;2023-04-19T01:24:39;99993.13;;;9.68;49.87
65280;BME280;51878;55.748;48.742;2023-04-19T01:29:42;99986.00;;;9.59;50.07
65280;BME280;51878;55.748;48.742;2023-04-19T01:34:44;99940.59;;;9.28;49.94
65280;BME280;51878;55.748;48.742;2023-04-19T01:39:48;99911.34;;;9.15;49.99
65280;BME280;51878;55.748;48.742;2023-04-19T01:44:50;99946.53;;;9.31;50.02
65280;BME280;51878;55.748;48.742;2023-04-19T01:49:52;99919.63;;;9.14;49.60
65280;BME280;51878;55.748;48.742;2023-04-19T01:54:54;99976.00;;;9.51;49.76
65280;BME280;51878;55.748;48.742;2023-04-19T01:59:57;99984.81;;;9.53;50.00
65280;BME280;51878;55.748;48.742;2023-04-19T02:04:59;99903.16;;;8.90;49.82
65280;BME280;51878;55.748;48.742;2023-04-19T02:10:01;99845.97;;;8.61;49.67
65280;BME280;51878;55.748;48.742;2023-04-19T02:15:04;99929.09;;;9.18;49.15
65280;BME280;51878;55.748;48.742;2023-04-19T02:20:08;99885.78;;;8.93;49.45
65280;BME280;51878;55.748;48.742;2023-04-19T02:25:10;99934.66;;;9.16;49.58
65280;BME280;51878;55.748;48.742;2023-04-19T02:30:12;99907.94;;;9.05;49.59
65280;BME280;51878;55.748;48.742;2023-04-19T02:35:15;99928.91;;;9.19;49.81
65280;BME280;51878;55.748;48.742;2023-04-19T02:40:17;99889.31;;;8.94;49.45
65280;BME280;51878;55.748;48.742;2023-04-19T02:45:22;99912.50;;;9.13;49.92
65280;BME280;51878;55.748;48.742;2023-04-19T02:50:28;99993.44;;;9.65;49.57
65280;BME280;51878;55.748;48.742;2023-04-19T02:55:30;99956.03;;;9.36;49.39
65280;BME280;51878;55.748;48.742;2023-04-19T03:00:32;99934.03;;;9.30;48.99
65280;BME280;51878;55.748;48.742;2023-04-19T03:05:34;99985.50;;;9.71;49.15
65280;BME280;51878;55.748;48.742;2023-04-19T03:10:36;99930.47;;;9.30;48.67
65280;BME280;51878;55.748;48.742;2023-04-19T03:15:41;99983.66;;;9.80;48.72
65280;BME280;51878;55.748;48.742;2023-04-19T03:20:43;99992.09;;;9.85;48.52
65280;BME280;51878;55.748;48.742;2023-04-19T03:25:45;99926.09;;;9.54;47.83
65280;BME280;51878;55.748;48.742;2023-04-19T03:30:48;99930.50;;;9.63;48.00
65280;BME280;51878;55.748;48.742;2023-04-19T03:35:50;99979.94;;;9.98;48.25
65280;BME280;51878;55.748;48.742;2023-04-19T03:40:52;99981.44;;;10.00;47.66
65280;BME280;51878;55.748;48.742;2023-04-19T03:45:54;99999.56;;;10.24;47.33
65280;BME280;51878;55.748;48.742;2023-04-19T03:50:57;99950.13;;;10.06;46.73
65280;BME280;51878;55.748;48.742;2023-04-19T03:55:59;99927.94;;;10.10;46.26
65280;BME280;51878;55.748;48.742;2023-04-19T04:01:03;99992.38;;;10.72;45.99
65280;BME280;51878;55.748;48.742;2023-04-19T04:06:05;100013.06;;;11.13;45.59
65280;BME280;51878;55.748;48.742;2023-04-19T04:11:07;99948.03;;;10.96;44.90
65280;BME280;51878;55.748;48.742;2023-04-19T04:16:10;100012.09;;;11.68;44.22
65280;BME280;51878;55.748;48.742;2023-04-19T04:21:13;99944.19;;;11.45;43.43
65280;BME280;51878;55.748;48.742;2023-04-19T04:26:15;99952.00;;;11.71;42.26
65280;BME280;51878;55.748;48.742;2023-04-19T04:31:19;100019.63;;;12.12;41.98
65280;BME280;51878;55.748;48.742;2023-04-19T04:36:22;100023.78;;;12.23;41.51
65280;BME280;51878;55.748;48.742;2023-04-19T04:41:27;100038.19;;;12.47;41.81
65280;BME280;51878;55.748;48.742;2023-04-19T04:46:32;100023.53;;;12.48;41.04
65280;BME280;51878;55.748;48.742;2023-04-19T04:51:34;100015.00;;;12.36;41.08
65280;BME280;51878;55.748;48.742;2023-04-19T04:56:37;99969.13;;;12.18;40.91
65280;BME280;51878;55.748;48.742;2023-04-19T05:01:39;99948.09;;;12.12;40.18
65280;BME280;51878;55.748;48.742;2023-04-19T05:06:41;99994.47;;;12.33;39.71
65280;BME280;51878;55.748;48.742;2023-04-19T05:11:45;99955.06;;;12.29;39.51
65280;BME280;51878;55.748;48.742;2023-04-19T05:16:50;100028.91;;;12.56;39.59
65280;BME280;51878;55.748;48.742;2023-04-19T05:21:52;99972.81;;;12.40;39.56
65280;BME280;51878;55.748;48.742;2023-04-19T05:26:54;99949.25;;;12.32;39.98
65280;BME280;51878;55.748;48.742;2023-04-19T05:31:57;99937.00;;;12.51;39.67
65280;BME280;51878;55.748;48.742;2023-04-19T05:36:59;99987.28;;;13.00;39.60
65280;BME280;51878;55.748;48.742;2023-04-19T05:42:02;100017.75;;;13.40;39.08
65280;BME280;51878;55.748;48.742;2023-04-19T05:47:04;99961.91;;;13.14;38.76
65280;BME280;51878;55.748;48.742;2023-04-19T05:52:06;100044.63;;;13.79;37.95
65280;BME280;51878;55.748;48.742;2023-04-19T05:57:11;99964.91;;;13.34;37.57
65280;BME280;51878;55.748;48.742;2023-04-19T06:02:13;99953.94;;;13.49;37.79
65280;BME280;51878;55.748;48.742;2023-04-19T06:07:17;99961.41;;;13.62;37.08
65280;BME280;51878;55.748;48.742;2023-04-19T06:12:32;99976.41;;;13.73;36.53
65280;BME280;51878;55.748;48.742;2023-04-19T06:17:34;99992.47;;;13.82;36.74
65280;BME280;51878;55.748;48.742;2023-04-19T06:22:48;100029.19;;;14.08;36.31
65280;BME280;51878;55.748;48.742;2023-04-19T06:27:50;100068.00;;;14.32;36.75
65280;BME280;51878;55.748;48.742;2023-04-19T06:32:52;100007.53;;;14.28;36.78
65280;BME280;51878;55.748;48.742;2023-04-19T06:37:55;100050.16;;;14.79;35.67
65280;BME280;51878;55.748;48.742;2023-04-19T06:42:57;99989.41;;;14.42;35.56
65280;BME280;51878;55.748;48.742;2023-04-19T06:47:59;99970.88;;;14.59;35.49
65280;BME280;51878;55.748;48.742;2023-04-19T06:53:01;100050.25;;;15.27;34.64
65280;BME280;51878;55.748;48.742;2023-04-19T06:58:05;100045.63;;;15.27;35.00
65280;BME280;51878;55.748;48.742;2023-04-19T07:03:11;100003.88;;;14.99;34.77
65280;BME280;51878;55.748;48.742;2023-04-19T07:08:14;100050.59;;;15.59;34.83
65280;BME280;51878;55.748;48.742;2023-04-19T07:13:16;100040.38;;;15.74;34.66
65280;BME280;51878;55.748;48.742;2023-04-19T07:18:19;100031.16;;;15.88;34.39
65280;BME280;51878;55.748;48.742;2023-04-19T07:23:21;100026.91;;;15.73;33.85
65280;BME280;51878;55.748;48.742;2023-04-19T07:28:23;100007.81;;;15.86;33.87
65280;BME280;51878;55.748;48.742;2023-04-19T07:33:25;100042.56;;;16.05;33.19
65280;BME280;51878;55.748;48.742;2023-04-19T07:38:28;100057.28;;;16.04;32.76
65280;BME280;51878;55.748;48.742;2023-04-19T07:43:31;99974.22;;;15.44;33.14
65280;BME280;51878;55.748;48.742;2023-04-19T07:48:33;99930.88;;;15.34;32.95
65280;BME280;51878;55.748;48.742;2023-04-19T07:53:35;99994.97;;;16.00;32.78
65280;BME280;51878;55.748;48.742;2023-04-19T07:58:37;99999.19;;;16.36;31.59
65280;BME280;51878;55.748;48.742;2023-04-19T08:03:44;99997.53;;;16.55;30.47
65280;BME280;51878;55.748;48.742;2023-04-19T08:08:48;100031.63;;;16.92;30.77
65280;BME280;51878;55.748;48.742;2023-04-19T08:13:50;100037.78;;;17.39;30.77
65280;BME280;51878;55.748;48.742;2023-04-19T08:19:07;100027.84;;;17.51;29.66
65280;BME280;51878;55.748;48.742;2023-04-19T08:24:09;99975.06;;;17.18;30.20
65280;BME280;51878;55.748;48.742;2023-04-19T08:29:11;100036.09;;;18.78;29.27
65280;BME280;51878;55.748;48.742;2023-04-19T08:34:13;100010.34;;;19.84;28.10
65280;BME280;51878;55.748;48.742;2023-04-19T08:39:15;99993.41;;;19.98;27.06
65280;BME280;51878;55.748;48.742;2023-04-19T08:44:31;100021.31;;;20.14;26.37
65280;BME280;51878;55.748;48.742;2023-04-19T08:49:40;99907.06;;;19.51;24.96
65280;BME280;51878;55.748;48.742;2023-04-19T08:54:45;100004.72;;;20.32;24.55
65280;BME280;51878;55.748;48.742;2023-04-19T08:59:47;99966.69;;;20.64;24.26
65280;BME280;51878;55.748;48.742;2023-04-19T09:04:53;99957.78;;;20.98;23.56
65280;BME280;51878;55.748;48.742;2023-04-19T09:10:28;100014.34;;;22.22;22.04
65280;BME280;51878;55.748;48.742;2023-04-19T09:15:37;99931.53;;;22.10;20.68
65280;BME280;51878;55.748;48.742;2023-04-19T09:20:42;99998.38;;;22.97;21.23
65280;BME280;51878;55.748;48.742;2023-04-19T09:31:21;99994.25;;;23.60;19.79
65280;BME280;51878;55.748;48.742;2023-04-19T09:36:43;99997.16;;;23.98;18.83
65280;BME280;51878;55.748;48.742;2023-04-19T09:41:53;99960.53;;;23.90;19.39
65280;BME280;51878;55.748;48.742;2023-04-19T09:46:55;99894.66;;;23.43;19.48
65280;BME280;51878;55.748;48.742;2023-04-19T09:52:02;99994.00;;;23.84;19.28
65280;BME280;51878;55.748;48.742;2023-04-19T09:57:04;99938.19;;;23.26;20.22
65280;BME280;51878;55.748;48.742;2023-04-19T10:02:09;99835.34;;;22.85;19.67
65280;BME280;51878;55.748;48.742;2023-04-19T10:07:13;99929.66;;;23.55;18.78
65280;BME280;51878;55.748;48.742;2023-04-19T10:12:19;99977.75;;;24.25;19.32
65280;BME280;51878;55.748;48.742;2023-04-19T10:17:42;99966.25;;;24.11;19.45
65280;BME280;51878;55.748;48.742;2023-04-19T10:22:44;99996.03;;;23.71;19.48
65280;BME280;51878;55.748;48.742;2023-04-19T10:27:47;99993.53;;;23.26;20.03
65280;BME280;51878;55.748;48.742;2023-04-19T10:32:54;99970.91;;;22.34;20.46
65280;BME280;51878;55.748;48.742;2023-04-19T10:38:10;99920.47;;;22.10;21.22
65280;BME280;51878;55.748;48.742;2023-04-19T10:43:19;99904.31;;;22.19;20.48
65280;BME280;51878;55.748;48.742;2023-04-19T10:54:03;99970.56;;;22.47;20.72
65280;BME280;51878;55.748;48.742;2023-04-19T11:09:54;99950.75;;;24.85;18.36
65280;BME280;51878;55.748;48.742;2023-04-19T11:14:57;99943.41;;;26.66;17.01
65280;BME280;51878;55.748;48.742;2023-04-19T11:20:08;99952.84;;;27.51;15.84
65280;BME280;51878;55.748;48.742;2023-04-19T11:25:18;99960.84;;;27.68;15.50
65280;BME280;51878;55.748;48.742;2023-04-19T11:30:32;99904.59;;;28.88;14.32
65280;BME280;51878;55.748;48.742;2023-04-19T11:35:34;99832.69;;;29.79;14.15
65280;BME280;51878;55.748;48.742;2023-04-19T11:40:36;99864.25;;;30.32;13.28
65280;BME280;51878;55.748;48.742;2023-04-19T11:45:39;99918.91;;;29.72;13.94
65280;BME280;51878;55.748;48.742;2023-04-19T11:50:43;99841.91;;;28.56;14.82
65280;BME280;51878;55.748;48.742;2023-04-19T11:55:49;99893.50;;;29.07;15.78
65280;BME280;51878;55.748;48.742;2023-04-19T12:00:52;99953.22;;;29.35;16.31
65280;BME280;51878;55.748;48.742;2023-04-19T12:06:01;99874.84;;;28.25;16.18
65280;BME280;51878;55.748;48.742;2023-04-19T12:11:10;99877.38;;;28.50;16.43
65280;BME280;51878;55.748;48.742;2023-04-19T12:16:12;99945.81;;;29.63;15.74
65280;BME280;51878;55.748;48.742;2023-04-19T12:26:28;99871.00;;;30.72;15.15
65280;BME280;51878;55.748;48.742;2023-04-19T12:31:30;99929.81;;;31.41;14.80
65280;BME280;51878;55.748;48.742;2023-04-19T12:36:35;99867.69;;;30.98;15.06
65280;BME280;51878;55.748;48.742;2023-04-19T12:41:40;99924.22;;;31.55;14.63
65280;BME280;51878;55.748;48.742;2023-04-19T12:46:44;99876.09;;;31.12;14.07
65280;BME280;51878;55.748;48.742;2023-04-19T12:51:47;99925.81;;;31.70;14.01
65280;BME280;51878;55.748;48.742;2023-04-19T12:56:49;99915.13;;;32.08;13.49
65280;BME280;51878;55.748;48.742;2023-04-19T13:01:51;99930.53;;;32.20;13.56
65280;BME280;51878;55.748;48.742;2023-04-19T13:06:53;99937.38;;;32.05;13.46
65280;BME280;51878;55.748;48.742;2023-04-19T13:11:56;99931.69;;;32.19;13.25
65280;BME280;51878;55.748;48.742;2023-04-19T13:17:01;99907.72;;;31.54;13.42
65280;BME280;51878;55.748;48.742;2023-04-19T13:22:03;99870.59;;;32.16;13.09
65280;BME280;51878;55.748;48.742;2023-04-19T13:27:05;99919.53;;;30.81;13.74
65280;BME280;51878;55.748;48.742;2023-04-19T13:32:09;99925.63;;;28.56;15.07
65280;BME280;51878;55.748;48.742;2023-04-19T13:37:13;99891.38;;;28.16;15.87
65280;BME280;51878;55.748;48.742;2023-04-19T13:42:16;99877.09;;;27.49;16.52
65280;BME280;51878;55.748;48.742;2023-04-19T13:47:18;99840.94;;;26.78;16.97
65280;BME280;51878;55.748;48.742;2023-04-19T13:52:21;99871.56;;;27.78;15.99
65280;BME280;51878;55.748;48.742;2023-04-19T13:57:24;99929.72;;;28.63;15.52
65280;BME280;51878;55.748;48.742;2023-04-19T14:02:27;99904.09;;;27.98;16.10
65280;BME280;51878;55.748;48.742;2023-04-19T14:07:31;99886.31;;;26.74;16.51
65280;BME280;51878;55.748;48.742;2023-04-19T14:12:44;99719.78;;;23.46;18.66
65280;BME280;51878;55.748;48.742;2023-04-19T14:17:47;99899.50;;;23.53;20.14
65280;BME280;51878;55.748;48.742;2023-04-19T14:22:49;99714.25;;;21.09;21.69
65280;BME280;51878;55.748;48.742;2023-04-19T14:27:51;99840.19;;;21.03;22.36
65280;BME280;51878;55.748;48.742;2023-04-19T14:32:53;99908.91;;;20.70;23.36
65280;BME280;51878;55.748;48.742;2023-04-19T14:37:56;99828.81;;;20.12;23.61
65280;BME280;51878;55.748;48.742;2023-04-19T14:42:58;99893.31;;;19.51;24.83
65280;BME280;51878;55.748;48.742;2023-04-19T14:48:00;99920.41;;;19.05;26.06
65280;BME280;51878;55.748;48.742;2023-04-19T14:53:03;99861.31;;;17.65;27.91
65280;BME280;51878;55.748;48.742;2023-04-19T14:58:06;99883.78;;;17.55;27.78
65280;BME280;51878;55.748;48.742;2023-04-19T15:03:08;99731.81;;;15.84;29.13
65280;BME280;51878;55.748;48.742;2023-04-19T15:08:11;99941.44;;;16.84;30.28
65280;BME280;51878;55.748;48.742;2023-04-19T15:13:27;99909.13;;;17.06;29.54
65280;BME280;51878;55.748;48.742;2023-04-19T15:18:30;99924.81;;;17.30;29.18
65280;BME280;51878;55.748;48.742;2023-04-19T15:23:32;99919.16;;;16.67;29.84
65280;BME280;51878;55.748;48.742;2023-04-19T15:28:35;99875.47;;;16.00;30.24
65280;BME280;51878;55.748;48.742;2023-04-19T15:33:37;99880.06;;;15.66;30.69
65280;BME280;51878;55.748;48.742;2023-04-19T15:38:39;99844.16;;;14.81;32.19
65280;BME280;51878;55.748;48.742;2023-04-19T15:43:53;99936.50;;;15.06;32.36
65280;BME280;51878;55.748;48.742;2023-04-19T15:48:55;99884.72;;;14.50;33.33
65280;BME280;51878;55.748;48.742;2023-04-19T15:53:57;99931.22;;;14.35;36.42
65280;BME280;51878;55.748;48.742;2023-04-19T15:59:00;99917.69;;;13.70;39.92
65280;BME280;51878;55.748;48.742;2023-04-19T16:04:05;99911.47;;;13.33;40.03
65280;BME280;51878;55.748;48.742;2023-04-19T16:09:07;99757.19;;;12.10;42.30
65280;BME280;51878;55.748;48.742;2023-04-19T16:14:09;99855.88;;;12.40;43.36
65280;BME280;51878;55.748;48.742;2023-04-19T16:19:13;99945.91;;;12.60;45.30
65280;BME280;51878;55.748;48.742;2023-04-19T16:24:15;99944.69;;;12.33;46.47
65280;BME280;51878;55.748;48.742;2023-04-19T16:29:17;99914.72;;;12.03;47.09
65280;BME280;51878;55.748;48.742;2023-04-19T16:34:20;99946.00;;;11.99;48.01
65280;BME280;51878;55.748;48.742;2023-04-19T16:39:25;99931.69;;;11.59;50.01
65280;BME280;51878;55.748;48.742;2023-04-19T16:44:27;99909.28;;;11.42;50.06
65280;BME280;51878;55.748;48.742;2023-04-19T16:49:32;99841.75;;;10.93;50.36
65280;BME280;51878;55.748;48.742;2023-04-19T16:54:34;99914.81;;;11.26;50.57
65280;BME280;51878;55.748;48.742;2023-04-19T16:59:36;99900.47;;;11.09;51.74
65280;BME280;51878;55.748;48.742;2023-04-19T17:04:38;99900.84;;;11.06;51.98
65280;BME280;51878;55.748;48.742;2023-04-19T17:09:41;99886.34;;;10.90;53.36
65280;BME280;51878;55.748;48.742;2023-04-19T17:14:43;99923.47;;;10.98;53.92
65280;BME280;51878;55.748;48.742;2023-04-19T17:19:45;99863.44;;;10.62;53.85
65280;BME280;51878;55.748;48.742;2023-04-19T17:24:47;99919.94;;;10.89;53.85
65280;BME280;51878;55.748;48.742;2023-04-19T17:29:50;99854.34;;;10.46;54.21
65280;BME280;51878;55.748;48.742;2023-04-19T17:34:52;99879.03;;;10.60;54.67
65280;BME280;51878;55.748;48.742;2023-04-19T17:39:55;99921.84;;;10.81;55.10
65280;BME280;51878;55.748;48.742;2023-04-19T17:44:57;99881.97;;;10.50;55.09
65280;BME280;51878;55.748;48.742;2023-04-19T17:50:12;99781.75;;;9.78;55.13
65280;BME280;51878;55.748;48.742;2023-04-19T18:01:36;99966.91;;;10.82;55.60
65280;BME280;51878;55.748;48.742;2023-04-19T18:06:43;99872.38;;;10.31;55.88
65280;BME280;51878;55.748;48.742;2023-04-19T18:11:51;99780.94;;;9.61;57.56
65280;BME280;51878;55.748;48.742;2023-04-19T18:16:54;99905.38;;;10.26;57.73
65280;BME280;51878;55.748;48.742;2023-04-19T18:21:56;99704.94;;;9.06;57.74
65280;BME280;51878;55.748;48.742;2023-04-19T18:26:59;99924.91;;;10.30;59.50
65280;BME280;51878;55.748;48.742;2023-04-19T18:32:02;99865.84;;;9.76;59.80
65280;BME280;51878;55.748;48.742;2023-04-19T18:37:13;99918.63;;;10.13;60.57
65280;BME280;51878;55.748;48.742;2023-04-19T18:42:15;99827.81;;;9.61;61.30
65280;BME280;51878;55.748;48.742;2023-04-19T18:47:18;99909.00;;;10.02;61.54
65280;BME280;51878;55.748;48.742;2023-04-19T18:52:20;99907.47;;;10.00;62.16
65280;BME280;51878;55.748;48.742;2023-04-19T18:57:22;99880.44;;;9.75;62.88
65280;BME280;51878;55.748;48.742;2023-04-19T19:02:28;99854.53;;;9.64;62.61
65280;BME280;51878;55.748;48.742;2023-04-19T19:07:30;99721.13;;;8.82;62.49
65280;BME280;51878;55.748;48.742;2023-04-19T19:12:37;99898.00;;;9.87;63.00
65280;BME280;51878;55.748;48.742;2023-04-19T19:17:42;99760.38;;;8.94;63.56
65280;BME280;51878;55.748;48.742;2023-04-19T19:22:50;99893.81;;;9.68;64.81
65280;BME280;51878;55.748;48.742;2023-04-19T19:27:52;99785.38;;;8.96;65.39
65280;BME280;51878;55.748;48.742;2023-04-19T19:32:59;99879.41;;;9.43;66.32
65280;BME280;51878;55.748;48.742;2023-04-19T19:38:01;99902.41;;;9.47;66.41
65280;BME280;51878;55.748;48.742;2023-04-19T19:43:03;99830.69;;;9.02;67.71
65280;BME280;51878;55.748;48.742;2023-04-19T19:48:06;99891.06;;;9.27;67.95
65280;BME280;51878;55.748;48.742;2023-04-19T19:53:08;99826.75;;;8.80;69.02
65280;BME280;51878;55.748;48.742;2023-04-19T19:58:11;99852.81;;;8.89;69.73
65280;BME280;51878;55.748;48.742;2023-04-19T20:03:33;99832.66;;;8.67;70.03
65280;BME280;51878;55.748;48.742;2023-04-19T20:08:38;99836.53;;;8.65;70.32
65280;BME280;51878;55.748;48.742;2023-04-19T20:13:45;99846.84;;;8.69;70.06
65280;BME280;51878;55.748;48.742;2023-04-19T20:18:47;99802.63;;;8.36;71.23
65280;BME280;51878;55.748;48.742;2023-04-19T20:23:53;99802.44;;;8.30;71.72
65280;BME280;51878;55.748;48.742;2023-04-19T20:28:55;99844.75;;;8.55;71.84
65280;BME280;51878;55.748;48.742;2023-04-19T20:33:57;99866.56;;;8.62;71.60
65280;BME280;51878;55.748;48.742;2023-04-19T20:39:02;99855.59;;;8.63;70.84
65280;BME280;51878;55.748;48.742;2023-04-19T20:44:10;99877.59;;;8.77;71.26
65280;BME280;51878;55.748;48.742;2023-04-19T20:49:13;99868.44;;;8.61;70.40
65280;BME280;51878;55.748;48.742;2023-04-19T20:54:18;99783.94;;;8.08;70.30
65280;BME280;51878;55.748;48.742;2023-04-19T20:59:20;99872.31;;;8.59;70.01
65280;BME280;51878;55.748;48.742;2023-04-19T21:04:22;99832.72;;;8.41;71.14
65280;BME280;51878;55.748;48.742;2023-04-19T21:09:27;99838.75;;;8.35;72.70
65280;BME280;51878;55.748;48.742;2023-04-19T21:14:30;99845.69;;;8.38;73.97
65280;BME280;51878;55.748;48.742;2023-04-19T21:19:35;99843.25;;;8.26;75.36
65280;BME280;51878;55.748;48.742;2023-04-19T21:24:37;99846.94;;;8.17;76.64
65280;BME280;51878;55.748;48.742;2023-04-19T21:29:39;99868.06;;;8.22;77.46
65280;BME280;51878;55.748;48.742;2023-04-19T21:34:42;99852.97;;;8.11;78.53
65280;BME280;51878;55.748;48.742;2023-04-19T21:39:45;99861.06;;;8.03;80.39
65280;BME280;51878;55.748;48.742;2023-04-19T21:44:47;99770.94;;;7.43;80.94
65280;BME280;51878;55.748;48.742;2023-04-19T21:49:49;99841.69;;;7.81;83.00
65280;BME280;51878;55.748;48.742;2023-04-19T21:54:52;99824.38;;;7.66;83.29
65280;BME280;51878;55.748;48.742;2023-04-19T21:59:54;99694.81;;;6.79;84.53
65280;BME280;51878;55.748;48.742;2023-04-19T22:04:56;99612.25;;;6.26;85.03
65280;BME280;51878;55.748;48.742;2023-04-19T22:10:01;99815.84;;;7.53;86.40
65280;BME280;51878;55.748;48.742;2023-04-19T22:15:05;99624.06;;;6.33;86.91
65280;BME280;51878;55.748;48.742;2023-04-19T22:20:08;99659.59;;;6.55;87.30
65280;BME280;51878;55.748;48.742;2023-04-19T22:25:12;99800.09;;;7.40;88.17
65280;BME280;51878;55.748;48.742;2023-04-19T22:30:14;99820.09;;;7.55;87.65
65280;BME280;51878;55.748;48.742;2023-04-19T22:35:17;99738.28;;;7.02;88.36
65280;BME280;51878;55.748;48.742;2023-04-19T22:40:21;99800.28;;;7.47;87.89
65280;BME280;51878;55.748;48.742;2023-04-19T22:45:23;99654.28;;;6.45;88.20
65280;BME280;51878;55.748;48.742;2023-04-19T22:50:26;99724.50;;;6.88;89.77
65280;BME280;51878;55.748;48.742;2023-04-19T22:55:29;99730.38;;;6.83;90.33
65280;BME280;51878;55.748;48.742;2023-04-19T23:00:31;99774.78;;;7.15;90.26
65280;BME280;51878;55.748;48.742;2023-04-19T23:05:33;99816.19;;;7.32;90.58
65280;BME280;51878;55.748;48.742;2023-04-19T23:10:35;99715.69;;;6.77;90.91
65280;BME280;51878;55.748;48.742;2023-04-19T23:15:39;99760.22;;;7.08;91.18
65280;BME280;51878;55.748;48.742;2023-04-19T23:20:41;99739.38;;;6.92;91.16
65280;BME280;51878;55.748;48.742;2023-04-19T23:25:43;99749.94;;;6.85;93.36
65280;BME280;51878;55.748;48.742;2023-04-19T23:30:46;99684.84;;;6.36;93.13
65280;BME280;51878;55.748;48.742;2023-04-19T23:35:48;99761.72;;;6.84;94.50
65280;BME280;51878;55.748;48.742;2023-04-19T23:40:50;99761.78;;;6.74;95.53
65280;BME280;51878;55.748;48.742;2023-04-19T23:45:52;99719.72;;;6.37;97.32
65280;BME280;51878;55.748;48.742;2023-04-19T23:50:54;99606.75;;;5.54;99.29
65280;BME280;51878;55.748;48.742;2023-04-19T23:55:56;99681.72;;;5.95;99.45
